createdAt,value
2023-01-10T00:00:01.786Z,-2.10
2023-01-10T00:02:30.617Z,-2.10
2023-01-10T00:05:00.939Z,-2.10
2023-01-10T00:07:29.755Z,-2.20
2023-01-10T00:09:58.450Z,-2.20
2023-01-10T00:12:44.747Z,-2.20
2023-01-10T00:15:13.648Z,-2.20
2023-01-10T00:17:42.299Z,-2.20
2023-01-10T00:20:13.772Z,-2.20
2023-01-10T00:22:42.487Z,-2.20
2023-01-10T00:25:11.326Z,-2.20
2023-01-10T00:27:40.076Z,-2.20
2023-01-10T00:30:14.228Z,-2.20
2023-01-10T00:32:44.414Z,-2.20
2023-01-10T00:35:14.795Z,-2.20
2023-01-10T00:37:43.924Z,-2.20
2023-01-10T00:40:14.237Z,-2.10
2023-01-10T00:43:00.071Z,-2.10
2023-01-10T00:45:28.847Z,-2.10
2023-01-10T00:47:57.478Z,-2.10
2023-01-10T00:50:27.523Z,-2.10
2023-01-10T00:52:56.213Z,-2.10
2023-01-10T00:55:24.893Z,-2.10
2023-01-10T00:57:53.952Z,-2.10
2023-01-10T01:00:22.852Z,-2.10
2023-01-10T01:02:52.829Z,-2.20
2023-01-10T01:05:21.971Z,-2.20
2023-01-10T01:07:52.533Z,-2.20
2023-01-10T01:10:30.949Z,-2.10
2023-01-10T01:13:01.585Z,-2.10
2023-01-10T01:15:30.338Z,-2.20
2023-01-10T01:17:59.042Z,-2.20
2023-01-10T01:20:27.857Z,-2.20
2023-01-10T01:22:58.092Z,-2.20
2023-01-10T01:25:26.815Z,-2.20
2023-01-10T01:27:55.524Z,-2.20
2023-01-10T01:30:24.431Z,-2.30
2023-01-10T01:32:53.273Z,-2.30
2023-01-10T01:35:22.314Z,-2.20
2023-01-10T01:37:51.004Z,-2.20
2023-01-10T01:40:23.694Z,-2.20
2023-01-10T01:42:56.072Z,-2.20
2023-01-10T01:45:39.070Z,-2.10
2023-01-10T01:48:37.993Z,-2.10
2023-01-10T01:51:11.005Z,-2.10
2023-01-10T01:53:45.764Z,-2.20
2023-01-10T01:56:19.309Z,-2.20
2023-01-10T01:58:52.817Z,-2.10
2023-01-10T02:01:22.913Z,-2.10
2023-01-10T02:04:02.913Z,-2.10
2023-01-10T02:06:31.759Z,-2.10
2023-01-10T02:09:07.107Z,-2.10
2023-01-10T02:11:37.286Z,-2.10
2023-01-10T02:14:07.939Z,-2.10
2023-01-10T02:16:36.644Z,-2.20
2023-01-10T02:19:09.103Z,-2.20
2023-01-10T02:22:13.776Z,-2.20
2023-01-10T02:25:12.016Z,-2.10
2023-01-10T02:27:59.317Z,-2.10
2023-01-10T02:30:58.024Z,-2.10
2023-01-10T02:33:31.749Z,-2.20
2023-01-10T02:36:17.592Z,-2.10
2023-01-10T02:38:59.742Z,-2.10
2023-01-10T02:41:33.436Z,-2.00
2023-01-10T02:44:08.893Z,-2.10
2023-01-10T02:46:40.807Z,-2.10
2023-01-10T02:49:10.941Z,-2.00
2023-01-10T02:51:39.584Z,-2.00
2023-01-10T02:54:12.595Z,-2.00
2023-01-10T02:57:16.750Z,-2.10
2023-01-10T03:00:13.203Z,-2.00
2023-01-10T03:02:54.297Z,-2.00
2023-01-10T03:05:34.608Z,-2.00
2023-01-10T03:08:10.969Z,-2.00
2023-01-10T03:10:45.142Z,-2.00
2023-01-10T03:13:17.691Z,-2.00
2023-01-10T03:15:48.308Z,-2.00
2023-01-10T03:18:22.239Z,-2.00
2023-01-10T03:20:53.855Z,-2.00
2023-01-10T03:23:24.226Z,-2.00
2023-01-10T03:25:57.114Z,-1.90
2023-01-10T03:28:31.304Z,-1.90
2023-01-10T03:31:05.304Z,-1.90
2023-01-10T03:33:34.917Z,-1.90
2023-01-10T03:36:17.093Z,-1.80
2023-01-10T03:38:50.930Z,-1.90
2023-01-10T03:41:28.167Z,-1.90
2023-01-10T03:44:18.139Z,-1.90
2023-01-10T03:46:51.854Z,-1.90
2023-01-10T03:49:23.697Z,-1.90
2023-01-10T03:51:55.348Z,-1.80
2023-01-10T03:54:24.578Z,-1.90
2023-01-10T03:56:53.829Z,-1.80
2023-01-10T03:59:26.840Z,-1.80
2023-01-10T04:01:56.512Z,-1.80
2023-01-10T04:04:25.238Z,-1.80
2023-01-10T04:06:55.591Z,-1.90
2023-01-10T04:09:24.553Z,-1.80
2023-01-10T04:11:53.207Z,-1.80
2023-01-10T04:14:21.898Z,-1.80
2023-01-10T04:16:51.315Z,-1.80
2023-01-10T04:19:23.154Z,-1.90
2023-01-10T04:21:51.943Z,-1.80
2023-01-10T04:24:22.240Z,-1.80
2023-01-10T04:26:51.487Z,-1.70
2023-01-10T04:29:20.159Z,-1.70
2023-01-10T04:31:49.699Z,-1.70
2023-01-10T04:34:20.281Z,-1.70
2023-01-10T04:36:50.676Z,-1.70
2023-01-10T04:39:19.602Z,-1.70
2023-01-10T04:41:50.084Z,-1.70
2023-01-10T04:44:18.809Z,-1.70
2023-01-10T04:46:47.680Z,-1.70
2023-01-10T04:49:16.450Z,-1.60
2023-01-10T04:51:45.186Z,-1.60
2023-01-10T04:54:14.183Z,-1.60
2023-01-10T04:56:42.972Z,-1.60
2023-01-10T04:59:13.758Z,-1.60
2023-01-10T05:01:42.734Z,-1.60
2023-01-10T05:04:12.064Z,-1.60
2023-01-10T05:06:41.547Z,-1.60
2023-01-10T05:09:11.275Z,-1.60
2023-01-10T05:11:39.999Z,-1.60
2023-01-10T05:14:08.784Z,-1.60
2023-01-10T05:16:38.945Z,-1.50
2023-01-10T05:19:07.579Z,-1.50
2023-01-10T05:21:36.180Z,-1.50
2023-01-10T05:24:04.981Z,-1.50
2023-01-10T05:26:33.624Z,-1.40
2023-01-10T05:29:02.311Z,-1.40
2023-01-10T05:31:30.930Z,-1.40
2023-01-10T05:34:01.121Z,-1.40
2023-01-10T05:36:29.819Z,-1.40
2023-01-10T05:38:58.538Z,-1.40
2023-01-10T05:41:27.219Z,-1.40
2023-01-10T05:43:56.125Z,-1.40
2023-01-10T05:46:24.785Z,-1.40
2023-01-10T05:48:54.205Z,-1.40
2023-01-10T05:51:24.633Z,-1.40
2023-01-10T05:53:53.452Z,-1.40
2023-01-10T05:56:22.207Z,-1.40
2023-01-10T05:58:57.055Z,-1.40
2023-01-10T06:01:33.322Z,-1.40
2023-01-10T06:04:02.116Z,-1.30
2023-01-10T06:06:32.162Z,-1.30
2023-01-10T06:09:00.801Z,-1.30
2023-01-10T06:11:30.306Z,-1.20
2023-01-10T06:13:59.128Z,-1.20
2023-01-10T06:16:27.743Z,-1.20
2023-01-10T06:18:56.374Z,-1.20
2023-01-10T06:21:24.949Z,-1.20
2023-01-10T06:23:55.115Z,-1.20
2023-01-10T06:26:23.750Z,-1.20
2023-01-10T06:28:52.326Z,-1.30
2023-01-10T06:31:22.576Z,-1.20
2023-01-10T06:33:52.317Z,-1.20
2023-01-10T06:36:21.101Z,-1.20
2023-01-10T06:38:49.758Z,-1.10
2023-01-10T06:41:19.746Z,-1.10
2023-01-10T06:43:49.019Z,-1.10
2023-01-10T06:46:20.071Z,-0.70
2023-01-10T06:48:49.057Z,-0.70
2023-01-10T06:51:20.323Z,-1.00
2023-01-10T06:53:49.643Z,-1.00
2023-01-10T06:56:19.659Z,-1.00
2023-01-10T06:58:50.369Z,-1.00
2023-01-10T07:01:21.371Z,-0.90
2023-01-10T07:03:50.511Z,-0.90
2023-01-10T07:06:19.163Z,-0.90
2023-01-10T07:08:48.656Z,-0.90
2023-01-10T07:11:18.071Z,-0.90
2023-01-10T07:13:48.099Z,-0.90
2023-01-10T07:16:17.826Z,-0.90
2023-01-10T07:18:46.291Z,-0.80
2023-01-10T07:21:16.901Z,-0.80
2023-01-10T07:23:45.599Z,-0.70
2023-01-10T07:26:17.892Z,-0.70
2023-01-10T07:28:52.069Z,-0.70
2023-01-10T07:31:23.095Z,-0.70
2023-01-10T07:33:53.653Z,-0.70
2023-01-10T07:36:22.969Z,-0.60
2023-01-10T07:38:51.561Z,-0.60
2023-01-10T07:41:20.246Z,-0.60
2023-01-10T07:43:50.317Z,-0.60
2023-01-10T07:46:19.028Z,-0.50
2023-01-10T07:48:49.229Z,-0.50
2023-01-10T07:51:17.985Z,-0.50
2023-01-10T07:53:46.569Z,-0.50
2023-01-10T07:56:16.554Z,-0.40
2023-01-10T07:58:46.445Z,-0.40
2023-01-10T08:01:16.226Z,-0.30
2023-01-10T08:03:44.651Z,-0.30
2023-01-10T08:06:15.374Z,-0.30
2023-01-10T08:08:45.298Z,-0.20
2023-01-10T08:11:13.977Z,-0.20
2023-01-10T08:13:42.655Z,-0.20
2023-01-10T08:16:11.506Z,-0.20
2023-01-10T08:18:43.189Z,-0.10
2023-01-10T08:21:11.968Z,-0.10
2023-01-10T08:23:40.539Z,0.00
2023-01-10T08:26:09.389Z,0.00
2023-01-10T08:28:37.996Z,0.10
2023-01-10T08:31:08.364Z,0.10
2023-01-10T08:33:38.524Z,0.20
2023-01-10T08:36:15.561Z,0.20
2023-01-10T08:38:44.273Z,0.20
2023-01-10T08:41:13.777Z,0.30
2023-01-10T08:43:42.523Z,0.30
2023-01-10T08:46:11.869Z,0.30
2023-01-10T08:48:40.712Z,0.40
2023-01-10T08:51:11.532Z,0.40
2023-01-10T08:53:41.326Z,0.50
2023-01-10T08:56:09.885Z,0.50
2023-01-10T08:58:38.628Z,0.60
2023-01-10T09:01:08.459Z,0.60
2023-01-10T09:03:37.136Z,0.60
2023-01-10T09:06:05.891Z,0.60
2023-01-10T09:08:36.213Z,0.60
2023-01-10T09:11:05.932Z,0.70
2023-01-10T09:13:34.654Z,0.70
2023-01-10T09:16:03.327Z,0.70
2023-01-10T09:18:31.985Z,0.70
2023-01-10T09:21:00.557Z,0.80
2023-01-10T09:23:29.200Z,0.80
2023-01-10T09:25:59.233Z,0.90
2023-01-10T09:28:28.080Z,0.90
2023-01-10T09:30:56.779Z,0.90
2023-01-10T09:33:28.063Z,1.00
2023-01-10T09:36:00.007Z,1.00
2023-01-10T09:38:28.646Z,1.00
2023-01-10T09:41:35.513Z,1.00
2023-01-10T09:44:08.067Z,1.10
2023-01-10T09:46:48.392Z,1.10
2023-01-10T09:49:24.798Z,1.10
2023-01-10T09:51:56.709Z,1.10
2023-01-10T09:54:30.470Z,1.10
2023-01-10T09:57:01.484Z,1.20
2023-01-10T09:59:38.217Z,1.20
2023-01-10T10:02:23.409Z,1.20
2023-01-10T10:05:05.151Z,1.20
2023-01-10T10:07:33.824Z,1.30
2023-01-10T10:10:02.642Z,1.30
2023-01-10T10:12:43.104Z,1.30
2023-01-10T10:15:24.965Z,1.40
2023-01-10T10:18:07.594Z,1.40
2023-01-10T10:20:55.858Z,1.40
2023-01-10T10:23:44.213Z,1.40
2023-01-10T10:26:23.661Z,1.40
2023-01-10T10:29:21.015Z,1.40
2023-01-10T10:32:15.129Z,1.40
2023-01-10T10:34:48.312Z,1.50
2023-01-10T10:37:23.042Z,1.50
2023-01-10T10:39:56.595Z,1.50
2023-01-10T10:42:32.521Z,1.50
2023-01-10T10:45:05.124Z,1.60
2023-01-10T10:47:37.644Z,1.50
2023-01-10T10:50:18.010Z,1.50
2023-01-10T10:52:48.103Z,1.60
2023-01-10T10:55:18.873Z,1.60
2023-01-10T10:57:59.978Z,1.60
2023-01-10T11:00:30.997Z,1.60
2023-01-10T11:03:05.797Z,1.60
2023-01-10T11:05:38.464Z,1.70
2023-01-10T11:08:11.891Z,1.70
2023-01-10T11:10:41.977Z,1.70
2023-01-10T11:13:19.491Z,1.70
2023-01-10T11:15:50.203Z,1.70
2023-01-10T11:18:22.058Z,1.70
2023-01-10T11:20:57.726Z,1.80
2023-01-10T11:23:35.298Z,1.80
2023-01-10T11:26:04.678Z,1.80
2023-01-10T11:28:34.912Z,1.70
2023-01-10T11:31:04.756Z,1.80
2023-01-10T11:33:36.576Z,1.80
2023-01-10T11:36:07.469Z,1.80
2023-01-10T11:38:36.867Z,1.80
2023-01-10T11:41:07.681Z,1.80
2023-01-10T11:43:38.439Z,1.70
2023-01-10T11:46:14.166Z,1.70
2023-01-10T11:49:05.702Z,1.70
2023-01-10T11:51:38.514Z,1.80
2023-01-10T11:54:11.719Z,1.80
2023-01-10T11:56:43.538Z,1.90
2023-01-10T11:59:15.343Z,1.80
2023-01-10T12:01:46.653Z,1.80
2023-01-10T12:04:21.788Z,1.80
2023-01-10T12:06:53.128Z,1.80
2023-01-10T12:09:36.916Z,1.80
2023-01-10T12:12:07.765Z,1.80
2023-01-10T12:14:36.408Z,1.80
2023-01-10T12:17:05.638Z,1.80
2023-01-10T12:19:35.758Z,1.80
2023-01-10T12:22:08.965Z,1.80
2023-01-10T12:24:42.425Z,1.80
2023-01-10T12:27:14.285Z,1.80
2023-01-10T12:29:47.105Z,1.80
2023-01-10T12:32:21.529Z,1.80
2023-01-10T12:34:58.949Z,1.90
2023-01-10T12:37:35.856Z,1.80
2023-01-10T12:40:12.961Z,1.90
2023-01-10T12:43:08.066Z,1.90
2023-01-10T12:45:41.367Z,1.90
2023-01-10T12:48:16.924Z,1.90
2023-01-10T12:50:54.056Z,1.90
2023-01-10T12:53:31.551Z,1.90
2023-01-10T12:56:05.148Z,1.90
2023-01-10T12:58:43.152Z,1.90
2023-01-10T13:01:16.720Z,1.90
2023-01-10T13:03:46.944Z,1.90
2023-01-10T13:06:24.528Z,1.90
2023-01-10T13:08:54.519Z,1.90
2023-01-10T13:11:26.617Z,1.90
2023-01-10T13:13:59.602Z,1.90
2023-01-10T13:16:41.722Z,1.90
2023-01-10T13:19:25.821Z,1.90
2023-01-10T13:22:20.432Z,1.90
2023-01-10T13:25:00.699Z,1.80
2023-01-10T13:27:32.983Z,1.90
2023-01-10T13:30:02.667Z,1.90
2023-01-10T13:32:34.858Z,1.90
2023-01-10T13:35:14.685Z,1.90
2023-01-10T13:37:46.497Z,1.90
2023-01-10T13:40:26.028Z,1.90
2023-01-10T13:43:34.568Z,1.90
2023-01-10T13:46:36.718Z,1.90
2023-01-10T13:49:43.198Z,1.90
2023-01-10T13:52:33.743Z,1.90
2023-01-10T13:55:29.589Z,1.90
2023-01-10T13:58:00.497Z,1.90
2023-01-10T14:01:07.024Z,1.80
2023-01-10T14:03:55.162Z,1.80
2023-01-10T14:06:41.314Z,1.80
2023-01-10T14:09:37.471Z,1.80
2023-01-10T14:12:18.147Z,1.80
2023-01-10T14:14:55.492Z,1.80
2023-01-10T14:17:27.158Z,1.80
2023-01-10T14:20:04.065Z,1.80
2023-01-10T14:22:35.779Z,1.80
2023-01-10T14:25:06.517Z,1.70
2023-01-10T14:27:45.089Z,1.70
2023-01-10T14:30:20.200Z,1.70
2023-01-10T14:32:52.314Z,1.70
2023-01-10T14:35:23.386Z,1.70
2023-01-10T14:37:56.355Z,1.80
2023-01-10T14:40:30.228Z,1.80
2023-01-10T14:43:03.833Z,1.80
2023-01-10T14:45:37.718Z,1.80
2023-01-10T14:48:28.180Z,1.80
2023-01-10T14:51:18.681Z,1.80
2023-01-10T14:53:47.300Z,1.80
2023-01-10T14:56:26.219Z,1.80
2023-01-10T14:58:56.252Z,1.80
2023-01-10T15:01:27.781Z,1.80
2023-01-10T15:03:58.209Z,1.80
2023-01-10T15:06:26.891Z,1.80
2023-01-10T15:09:00.282Z,1.80
2023-01-10T15:11:30.551Z,1.80
2023-01-10T15:14:10.956Z,1.80
2023-01-10T15:16:41.571Z,1.80
2023-01-10T15:19:15.212Z,1.80
2023-01-10T15:21:45.254Z,1.90
2023-01-10T15:24:35.147Z,1.90
2023-01-10T15:27:05.737Z,1.90
2023-01-10T15:29:37.133Z,1.90
2023-01-10T15:32:11.923Z,1.90
2023-01-10T15:34:42.431Z,1.90
2023-01-10T15:37:20.047Z,1.90
2023-01-10T15:39:49.373Z,1.90
2023-01-10T15:42:21.801Z,1.90
2023-01-10T15:44:56.173Z,1.90
2023-01-10T15:47:40.130Z,1.90
2023-01-10T15:50:21.276Z,1.90
2023-01-10T15:52:51.154Z,1.90
2023-01-10T15:55:38.169Z,1.90
2023-01-10T15:58:07.691Z,1.90
2023-01-10T16:00:37.769Z,2.00
2023-01-10T16:03:21.237Z,1.90
2023-01-10T16:05:55.854Z,1.90
2023-01-10T16:08:27.151Z,1.90
2023-01-10T16:10:58.679Z,1.90
2023-01-10T16:13:27.555Z,1.80
2023-01-10T16:15:58.996Z,1.80
2023-01-10T16:18:28.522Z,1.80
2023-01-10T16:20:59.839Z,1.80
2023-01-10T16:23:33.164Z,1.80
2023-01-10T16:26:04.463Z,1.80
2023-01-10T16:28:37.588Z,1.80
2023-01-10T16:31:11.369Z,1.80
2023-01-10T16:33:41.231Z,1.80
2023-01-10T16:36:16.161Z,1.80
2023-01-10T16:38:45.495Z,1.70
2023-01-10T16:41:32.666Z,1.80
2023-01-10T16:44:02.068Z,1.80
2023-01-10T16:46:32.568Z,1.80
2023-01-10T16:49:01.656Z,1.70
2023-01-10T16:51:32.877Z,1.80
2023-01-10T16:54:02.865Z,1.80
2023-01-10T16:56:31.651Z,1.80
2023-01-10T16:59:00.392Z,1.80
2023-01-10T17:01:36.020Z,1.80
2023-01-10T17:04:07.381Z,1.80
2023-01-10T17:06:36.810Z,1.80
2023-01-10T17:09:05.635Z,1.80
2023-01-10T17:11:37.307Z,1.80
2023-01-10T17:14:08.634Z,1.80
2023-01-10T17:16:38.945Z,1.80
2023-01-10T17:19:07.843Z,1.80
2023-01-10T17:21:36.501Z,1.80
2023-01-10T17:24:05.595Z,1.80
2023-01-10T17:26:34.223Z,1.80
2023-01-10T17:29:02.965Z,1.80
2023-01-10T17:31:31.827Z,1.80
2023-01-10T17:34:02.146Z,1.80
2023-01-10T17:36:32.698Z,1.80
2023-01-10T17:39:01.564Z,1.80
2023-01-10T17:41:31.229Z,1.80
2023-01-10T17:44:00.013Z,1.70
2023-01-10T17:46:30.796Z,1.70
2023-01-10T17:48:59.565Z,1.80
2023-01-10T17:51:29.658Z,1.80
2023-01-10T17:53:58.456Z,1.80
2023-01-10T17:56:27.231Z,1.80
2023-01-10T17:58:55.899Z,1.80
2023-01-10T18:01:26.129Z,1.80
2023-01-10T18:03:55.368Z,1.80
2023-01-10T18:06:25.085Z,1.80
2023-01-10T18:08:56.082Z,1.80
2023-01-10T18:11:25.688Z,1.80
2023-01-10T18:13:54.327Z,1.80
2023-01-10T18:16:26.244Z,1.80
2023-01-10T18:18:56.972Z,1.80
2023-01-10T18:21:26.277Z,1.90
2023-01-10T18:24:01.859Z,1.90
2023-01-10T18:26:30.509Z,1.80
2023-01-10T18:29:00.726Z,1.80
2023-01-10T18:31:29.521Z,1.80
2023-01-10T18:33:58.291Z,1.80
2023-01-10T18:36:27.165Z,1.80
2023-01-10T18:38:59.518Z,1.80
2023-01-10T18:41:28.196Z,1.80
2023-01-10T18:43:56.908Z,1.80
2023-01-10T18:46:25.993Z,1.80
2023-01-10T18:48:54.884Z,1.80
2023-01-10T18:51:25.608Z,1.80
2023-01-10T18:53:54.405Z,1.80
2023-01-10T18:56:24.488Z,1.80
2023-01-10T18:58:53.241Z,1.80
2023-01-10T19:01:23.116Z,1.80
2023-01-10T19:03:52.353Z,1.80
2023-01-10T19:06:22.815Z,1.80
2023-01-10T19:08:52.411Z,1.80
2023-01-10T19:11:21.609Z,1.80
2023-01-10T19:13:54.172Z,1.80
2023-01-10T19:16:24.891Z,1.80
2023-01-10T19:18:55.197Z,1.70
2023-01-10T19:21:24.765Z,1.80
2023-01-10T19:23:55.931Z,1.70
2023-01-10T19:26:25.663Z,1.70
2023-01-10T19:28:55.615Z,1.70
2023-01-10T19:31:25.207Z,1.70
2023-01-10T19:33:54.359Z,1.70
2023-01-10T19:36:24.562Z,1.70
2023-01-10T19:38:56.862Z,1.70
2023-01-10T19:41:25.643Z,1.70
2023-01-10T19:44:00.823Z,1.70
2023-01-10T19:46:32.288Z,1.70
2023-01-10T19:49:13.491Z,1.70
2023-01-10T19:51:42.553Z,1.70
2023-01-10T19:54:13.377Z,1.70
2023-01-10T19:56:42.395Z,1.70
2023-01-10T19:59:13.862Z,1.70
2023-01-10T20:01:43.292Z,1.60
2023-01-10T20:04:12.190Z,1.60
2023-01-10T20:06:41.929Z,1.60
2023-01-10T20:09:12.168Z,1.60
2023-01-10T20:11:43.064Z,1.60
2023-01-10T20:14:15.727Z,1.60
2023-01-10T20:16:45.195Z,1.60
2023-01-10T20:19:14.232Z,1.60
2023-01-10T20:21:43.935Z,1.60
2023-01-10T20:24:14.143Z,1.60
2023-01-10T20:26:43.261Z,1.60
2023-01-10T20:29:15.237Z,1.50
2023-01-10T20:31:46.663Z,1.50
2023-01-10T20:34:15.336Z,1.50
2023-01-10T20:36:44.005Z,1.50
2023-01-10T20:39:12.806Z,1.60
2023-01-10T20:41:41.378Z,1.50
2023-01-10T20:44:10.053Z,1.50
2023-01-10T20:46:40.301Z,1.50
2023-01-10T20:49:10.562Z,1.50
2023-01-10T20:51:39.393Z,1.60
2023-01-10T20:54:09.456Z,1.50
2023-01-10T20:56:39.478Z,1.50
2023-01-10T20:59:09.356Z,1.50
2023-01-10T21:01:40.644Z,1.50
2023-01-10T21:04:09.659Z,1.50
2023-01-10T21:06:38.343Z,1.50
2023-01-10T21:09:07.691Z,1.60
2023-01-10T21:11:47.773Z,1.50
2023-01-10T21:14:25.156Z,1.50
2023-01-10T21:16:55.195Z,1.60
2023-01-10T21:19:23.971Z,1.50
2023-01-10T21:21:52.624Z,1.60
2023-01-10T21:24:23.068Z,1.60
2023-01-10T21:26:51.755Z,1.60
2023-01-10T21:29:20.425Z,1.60
2023-01-10T21:31:49.204Z,1.60
2023-01-10T21:34:19.197Z,1.60
2023-01-10T21:36:47.897Z,1.60
2023-01-10T21:39:18.113Z,1.60
2023-01-10T21:42:04.456Z,1.50
2023-01-10T21:44:33.165Z,1.50
2023-01-10T21:47:02.022Z,1.50
2023-01-10T21:49:32.130Z,1.50
2023-01-10T21:52:00.815Z,1.50
2023-01-10T21:54:29.500Z,1.50
2023-01-10T21:56:58.310Z,1.40
2023-01-10T21:59:29.187Z,1.50
2023-01-10T22:01:57.828Z,1.50
2023-01-10T22:04:26.425Z,1.50
2023-01-10T22:06:57.682Z,1.50
2023-01-10T22:09:29.308Z,1.50
2023-01-10T22:11:58.005Z,1.60
2023-01-10T22:14:26.788Z,1.60
2023-01-10T22:16:55.436Z,1.60
2023-01-10T22:19:24.142Z,1.60
2023-01-10T22:21:52.731Z,1.50
2023-01-10T22:24:22.899Z,1.60
2023-01-10T22:26:54.069Z,1.60
2023-01-10T22:29:22.757Z,1.60
2023-01-10T22:31:51.748Z,1.60
2023-01-10T22:34:20.554Z,1.60
2023-01-10T22:36:49.292Z,1.60
2023-01-10T22:39:18.049Z,1.60
2023-01-10T22:41:48.123Z,1.60
2023-01-10T22:44:20.523Z,1.60
2023-01-10T22:46:50.958Z,1.50
2023-01-10T22:49:19.879Z,1.50
2023-01-10T22:51:48.634Z,1.60
2023-01-10T22:54:17.906Z,1.60
2023-01-10T22:56:48.478Z,1.60
2023-01-10T23:02:03.349Z,1.60
2023-01-10T23:04:31.957Z,1.60
2023-01-10T23:07:55.596Z,1.60
2023-01-10T23:10:43.754Z,1.70
2023-01-10T23:13:15.834Z,1.70
2023-01-10T23:15:44.645Z,1.70
2023-01-10T23:18:13.502Z,1.70
2023-01-10T23:20:42.105Z,1.70
2023-01-10T23:23:10.697Z,1.70
2023-01-10T23:25:39.230Z,1.70
2023-01-10T23:28:07.872Z,1.70
2023-01-10T23:30:38.021Z,1.70
2023-01-10T23:33:06.556Z,1.70
2023-01-10T23:35:35.113Z,1.70
2023-01-10T23:38:03.678Z,1.70
2023-01-10T23:40:32.283Z,1.70
2023-01-10T23:43:01.152Z,1.70
2023-01-10T23:45:29.719Z,1.70
2023-01-10T23:47:59.730Z,1.70
2023-01-10T23:50:28.306Z,1.80
2023-01-10T23:52:56.902Z,1.80
2023-01-10T23:55:25.504Z,1.80
2023-01-10T23:57:54.060Z,1.70
